Terminal Aerodrome Forecast
Issued by NWS Charleston, WV

Current Version | Previous Version | Graphics & Text | Print | Product List | Glossary On
Versions: 1 2 3 4 5 6 7 8 9 10 11 12 13 14 15 16 17 18 19 20 21 22 23 24 25
000
FTUS41 KRLX 261518 AAA
TAFHTS
TAF AMD
KHTS 261518Z 2615/2712 23008G15KT P6SM BKN040
     FM261900 24010G17KT 5SM -SHRA VCTS BKN035CB
     FM262100 26007KT 3SM SHRA VCTS BKN030CB
     FM270300 26006KT 3SM SHRA BR BKN025
     FM270700 VRB02KT 2SM SHRA BR BKN015=

USA.gov is the U.S. government's official web portal to all federal, state and local government web resources and services.